METAR Data
IDs: Format: Raw Decoded Include TAF

Data at: 0931 UTC 25 Mar 2019

MROC 250900Z 10010KT 050V130 CAVOK 20/14 A2998 NOSIG